Time;durP1;ratioP1;P1;durP2;ratioP2;P2;SDS_P1;SDS_P2;PMS_P1;PMS_P2;Temp;Humidity;BMP_temperature;BMP_pressure;BME280_temperature;BME280_humidity;BME280_pressure;Samples;Min_cycle;Max_cycle;Signal;HPM_P1;HPM_P2
2022/03/23 00:00:44;;;;;;;19.70;9.60;;;;;;;4.37;48.11;98307.65;107971;1271;39318;-74
2022/03/23 00:03:16;;;;;;;21.60;11.20;;;;;;;4.32;48.13;98312.90;107891;1272;45975;-74
2022/03/23 00:05:47;;;;;;;18.70;10.70;;;;;;;4.28;48.12;98310.14;107939;1272;42652;-74
2022/03/23 00:08:21;;;;;;;15.30;9.60;;;;;;;4.28;48.19;98310.39;108031;1271;45489;-74
2022/03/23 00:10:52;;;;;;;18.30;10.10;;;;;;;4.29;48.07;98309.98;108007;1271;40557;-75
2022/03/23 00:13:22;;;;;;;18.70;11.30;;;;;;;4.25;48.17;98308.60;107970;1271;32720;-74
2022/03/23 00:15:54;;;;;;;16.60;8.40;;;;;;;4.18;48.17;98305.50;107894;1273;32824;-74
2022/03/23 00:18:25;;;;;;;18.40;9.60;;;;;;;4.24;48.23;98302.86;107930;1272;43654;-74
2022/03/23 00:20:57;;;;;;;16.70;8.30;;;;;;;4.35;47.92;98301.77;107916;1273;39526;-74
2022/03/23 00:23:28;;;;;;;10.60;7.20;;;;;;;4.37;47.54;98296.50;107915;1273;31644;-74
2022/03/23 00:25:59;;;;;;;17.80;11.10;;;;;;;4.37;47.31;98295.37;107944;1271;42627;-74
2022/03/23 00:28:30;;;;;;;16.60;9.70;;;;;;;4.50;47.38;98290.55;108007;1270;29792;-74
2022/03/23 00:31:01;;;;;;;17.30;11.10;;;;;;;4.65;47.26;98290.42;107910;1271;30262;-74
2022/03/23 00:33:32;;;;;;;18.70;10.40;;;;;;;4.89;47.30;98284.94;107932;1271;41228;-74
2022/03/23 00:36:05;;;;;;;15.00;8.50;;;;;;;4.99;46.94;98283.24;107928;1273;27718;-74
2022/03/23 00:38:36;;;;;;;13.60;8.80;;;;;;;5.07;46.66;98277.55;107931;1273;30251;-74
2022/03/23 00:41:08;;;;;;;18.50;9.60;;;;;;;5.32;46.62;98275.40;107949;1271;42244;-74
2022/03/23 00:43:39;;;;;;;14.00;8.60;;;;;;;5.49;46.37;98269.84;107988;1271;40362;-74
2022/03/23 00:46:10;;;;;;;13.00;6.50;;;;;;;5.61;45.73;98265.13;108059;1270;31890;-74
2022/03/23 00:48:41;;;;;;;21.60;11.30;;;;;;;5.83;45.28;98263.09;107943;1271;42858;-74
2022/03/23 00:51:12;;;;;;;21.80;12.70;;;;;;;5.86;44.95;98262.76;107991;1270;40025;-74
2022/03/23 00:53:44;;;;;;;15.60;9.90;;;;;;;5.91;44.89;98260.34;107957;1271;47767;-75
2022/03/23 00:56:16;;;;;;;20.80;12.50;;;;;;;5.95;44.71;98259.94;107959;1273;26941;-74
2022/03/23 00:58:47;;;;;;;18.70;11.80;;;;;;;5.90;44.68;98254.45;107994;1271;31089;-74
2022/03/23 01:01:18;;;;;;;22.60;12.00;;;;;;;5.85;44.95;98252.15;107985;1271;28909;-74
2022/03/23 01:03:48;;;;;;;14.90;10.10;;;;;;;5.75;44.68;98251.73;108106;1270;34815;-74
2022/03/23 01:06:19;;;;;;;21.80;12.00;;;;;;;5.68;44.83;98251.67;108000;1271;41254;-74
2022/03/23 01:08:50;;;;;;;18.00;11.00;;;;;;;5.58;44.96;98252.30;107961;1273;39976;-74
2022/03/23 01:11:19;;;;;;;;;;;;;;;5.46;45.21;98254.35;107950;1272;45487;-74
2022/03/23 01:13:50;;;;;;;21.30;11.50;;;;;;;5.28;45.43;98252.27;108053;1270;39524;-74
2022/03/23 01:16:21;;;;;;;21.00;11.40;;;;;;;5.09;45.74;98253.85;108016;1271;31060;-75
2022/03/23 01:18:52;;;;;;;21.00;12.30;;;;;;;4.89;46.13;98250.69;107933;1273;42074;-74
2022/03/23 01:21:23;;;;;;;17.20;10.40;;;;;;;4.66;46.18;98246.05;107965;1271;33038;-74
2022/03/23 01:23:54;;;;;;;22.70;12.50;;;;;;;4.36;46.07;98244.74;107976;1271;40464;-75
2022/03/23 01:26:25;;;;;;;23.20;12.90;;;;;;;4.21;46.63;98244.61;107901;1273;43364;-74
2022/03/23 01:28:56;;;;;;;14.40;9.60;;;;;;;4.10;46.78;98244.42;107925;1272;42701;-74
2022/03/23 01:31:27;;;;;;;20.50;10.30;;;;;;;3.98;46.48;98241.30;107899;1273;39008;-74
2022/03/23 01:33:59;;;;;;;17.20;10.90;;;;;;;3.90;46.69;98247.07;107946;1273;32605;-74
2022/03/23 01:36:31;;;;;;;20.10;12.60;;;;;;;3.85;47.10;98249.25;107964;1271;41933;-74
2022/03/23 01:39:03;;;;;;;26.40;13.90;;;;;;;3.82;47.81;98247.14;107920;1271;42093;-74
2022/03/23 01:41:38;;;;;;;21.20;10.80;;;;;;;3.77;48.26;98247.66;107971;1270;44509;-74
2022/03/23 01:44:17;;;;;;;23.10;12.40;;;;;;;3.73;48.03;98247.27;107966;1270;42765;-74
2022/03/23 01:47:07;;;;;;;24.70;13.40;;;;;;;3.72;48.45;98246.02;107998;1271;42758;-74
2022/03/23 01:49:40;;;;;;;18.40;12.50;;;;;;;3.76;48.83;98248.41;107969;1269;43599;-74
2022/03/23 01:52:14;;;;;;;25.00;14.70;;;;;;;3.80;49.10;98246.20;107973;1272;35648;-74
2022/03/23 01:54:45;;;;;;;23.20;12.80;;;;;;;3.82;49.10;98248.27;107984;1271;42758;-74
2022/03/23 01:57:19;;;;;;;14.60;7.70;;;;;;;3.73;49.26;98244.69;107965;1271;31824;-74
2022/03/23 01:59:50;;;;;;;19.50;8.20;;;;;;;3.61;49.52;98244.75;108035;1271;39869;-74
2022/03/23 02:02:20;;;;;;;14.40;7.00;;;;;;;3.55;50.05;98239.96;108021;1271;53892;-74
2022/03/23 02:04:54;;;;;;;17.60;8.50;;;;;;;3.59;50.35;98235.42;107991;1273;50942;-74
2022/03/23 02:07:34;;;;;;;14.20;8.60;;;;;;;3.66;50.16;98233.73;107978;1273;26388;-74
2022/03/23 02:10:06;;;;;;;18.40;8.70;;;;;;;3.77;49.97;98229.87;107783;1271;243700;-74
2022/03/23 02:12:38;;;;;;;20.20;12.30;;;;;;;3.89;49.72;98231.20;107916;1273;39956;-74
2022/03/23 02:15:17;;;;;;;19.80;13.00;;;;;;;3.93;49.38;98230.53;107956;1271;41447;-74
2022/03/23 02:17:53;;;;;;;12.20;8.20;;;;;;;4.01;49.38;98225.93;107988;1273;30901;-74
2022/03/23 02:20:24;;;;;;;26.70;14.90;;;;;;;4.10;49.19;98222.27;107951;1273;43418;-74
2022/03/23 02:22:55;;;;;;;22.70;11.50;;;;;;;4.17;49.05;98222.35;108047;1271;30756;-74
2022/03/23 02:25:28;;;;;;;21.50;13.40;;;;;;;4.24;48.91;98218.74;107985;1271;40719;-74
2022/03/23 02:28:00;;;;;;;17.80;10.60;;;;;;;4.32;48.73;98217.75;107906;1272;42163;-74
2022/03/23 02:30:31;;;;;;;24.40;13.60;;;;;;;4.49;48.53;98218.55;107977;1271;33991;-74
2022/03/23 02:33:03;;;;;;;21.90;11.20;;;;;;;4.57;48.21;98213.03;107979;1271;32290;-74
2022/03/23 02:35:34;;;;;;;24.40;15.50;;;;;;;4.56;48.15;98215.73;107895;1273;43103;-74
2022/03/23 02:38:04;;;;;;;22.90;12.40;;;;;;;4.53;48.11;98217.52;107982;1271;44786;-74
2022/03/23 02:40:36;;;;;;;25.20;14.80;;;;;;;4.56;48.04;98216.95;107997;1271;29983;-74
2022/03/23 02:43:07;;;;;;;20.40;11.20;;;;;;;4.61;47.95;98216.42;108001;1270;41246;-74
2022/03/23 02:45:38;;;;;;;22.60;13.50;;;;;;;4.65;47.79;98221.70;107999;1271;29793;-74
2022/03/23 02:48:09;;;;;;;19.40;11.90;;;;;;;4.72;47.58;98217.77;107903;1272;44006;-74
2022/03/23 02:50:40;;;;;;;20.80;12.40;;;;;;;4.71;47.44;98218.02;107924;1273;34725;-74
2022/03/23 03:01:55;;;;;;;20.60;9.00;;;;;;;4.62;47.73;98224.34;108049;1271;30948;-74
2022/03/23 03:04:26;;;;;;;22.20;14.80;;;;;;;4.63;47.64;98221.95;107991;1271;42039;-74
2022/03/23 03:06:59;;;;;;;21.90;14.10;;;;;;;4.63;47.58;98217.27;107911;1273;44688;-73
2022/03/23 03:09:30;;;;;;;23.70;14.90;;;;;;;4.69;47.29;98218.05;107964;1271;42058;-74
2022/03/23 03:11:59;;;;;;;;;;;;;;;4.65;47.08;98221.76;107976;1271;41225;-74
2022/03/23 03:14:31;;;;;;;21.20;13.80;;;;;;;4.78;46.84;98216.77;107930;1273;30617;-74
2022/03/23 03:17:02;;;;;;;20.20;11.10;;;;;;;4.91;46.52;98220.97;107960;1271;31422;-74
2022/03/23 03:19:33;;;;;;;24.10;13.30;;;;;;;4.90;46.38;98216.84;107957;1272;36142;-74
2022/03/23 03:22:05;;;;;;;20.40;12.70;;;;;;;4.90;46.23;98218.34;107906;1273;47556;-74
2022/03/23 03:24:37;;;;;;;20.80;14.00;;;;;;;4.90;46.17;98215.64;107971;1271;43668;-74
2022/03/23 03:27:09;;;;;;;18.20;11.90;;;;;;;4.93;46.11;98216.61;107983;1271;32472;-74
2022/03/23 03:29:39;;;;;;;22.00;12.60;;;;;;;4.84;46.04;98214.27;107962;1272;32857;-74
2022/03/23 03:32:11;;;;;;;17.00;9.70;;;;;;;4.77;46.20;98212.16;108014;1271;42893;-74
2022/03/23 03:34:41;;;;;;;15.90;9.90;;;;;;;4.71;46.59;98211.63;107954;1271;44972;-74
2022/03/23 03:37:11;;;;;;;;;;;;;;;4.64;46.74;98209.44;107972;1271;31935;-74
2022/03/23 03:39:42;;;;;;;20.50;13.40;;;;;;;4.58;46.75;98206.16;107942;1271;39890;-74
2022/03/23 03:42:13;;;;;;;23.40;13.30;;;;;;;4.58;46.73;98204.27;107974;1271;45207;-74
2022/03/23 03:44:44;;;;;;;24.20;14.60;;;;;;;4.59;46.77;98204.95;107941;1271;38762;-74
2022/03/23 03:47:15;;;;;;;24.20;14.10;;;;;;;4.61;46.92;98201.23;107965;1271;32288;-74
2022/03/23 03:49:46;;;;;;;23.90;14.20;;;;;;;4.61;46.99;98203.70;108011;1270;44823;-74
2022/03/23 03:52:18;;;;;;;19.60;11.20;;;;;;;4.68;47.00;98203.15;107978;1273;44380;-74
2022/03/23 03:54:48;;;;;;;25.80;14.60;;;;;;;4.70;47.17;98200.08;108008;1271;39851;-74
2022/03/23 03:57:19;;;;;;;14.40;8.10;;;;;;;4.67;47.29;98202.91;108094;1271;43533;-74
2022/03/23 03:59:50;;;;;;;19.90;11.80;;;;;;;4.67;47.21;98193.13;107981;1271;32974;-74
2022/03/23 04:02:21;;;;;;;17.80;10.30;;;;;;;4.69;47.02;98199.71;107985;1274;29162;-74
2022/03/23 04:04:52;;;;;;;16.70;11.20;;;;;;;4.70;46.89;98197.89;107911;1271;35438;-74
2022/03/23 04:07:23;;;;;;;16.10;10.40;;;;;;;4.72;46.95;98203.34;107964;1271;44002;-74
2022/03/23 04:09:54;;;;;;;21.30;11.30;;;;;;;4.66;47.10;98206.09;107955;1271;42308;-73
2022/03/23 04:12:24;;;;;;;20.80;10.10;;;;;;;4.60;47.32;98205.30;107917;1271;43665;-73
2022/03/23 04:14:53;;;;;;;;;;;;;;;4.52;47.46;98204.54;107945;1274;42864;-73
2022/03/23 04:17:24;;;;;;;24.40;13.00;;;;;;;4.41;47.85;98213.70;107975;1271;44273;-74
2022/03/23 04:19:53;;;;;;;;;;;;;;;4.37;47.87;98209.52;108009;1271;30318;-75
2022/03/23 04:22:24;;;;;;;19.80;9.60;;;;;;;4.29;48.12;98203.65;107929;1274;34208;-74
2022/03/23 04:24:55;;;;;;;24.10;13.20;;;;;;;4.25;48.15;98201.39;107980;1271;43401;-74
2022/03/23 04:27:26;;;;;;;23.00;13.90;;;;;;;4.26;48.03;98196.66;107959;1271;43956;-74
2022/03/23 04:29:56;;;;;;;21.40;11.60;;;;;;;4.25;47.85;98199.16;107932;1271;44062;-73
2022/03/23 04:32:27;;;;;;;21.20;12.50;;;;;;;4.28;47.83;98200.21;107970;1271;33418;-74
2022/03/23 04:34:58;;;;;;;21.50;11.20;;;;;;;4.33;47.70;98194.68;107892;1271;33397;-74
2022/03/23 04:37:27;;;;;;;;;;;;;;;4.39;47.62;98192.57;107985;1271;43461;-73
2022/03/23 04:39:59;;;;;;;20.20;13.40;;;;;;;4.47;47.35;98194.98;107965;1271;29340;-74
2022/03/23 04:42:31;;;;;;;22.70;12.10;;;;;;;4.50;47.10;98195.88;107908;1274;43396;-73
2022/03/23 04:45:02;;;;;;;19.00;11.90;;;;;;;4.48;47.08;98191.55;107942;1272;29951;-74
2022/03/23 04:47:33;;;;;;;22.70;12.80;;;;;;;4.47;47.00;98189.94;107948;1271;32983;-74
2022/03/23 04:50:06;;;;;;;19.30;12.80;;;;;;;4.66;46.94;98193.27;108002;1271;29594;-74
2022/03/23 04:52:38;;;;;;;23.00;14.70;;;;;;;5.00;46.45;98192.59;107958;1271;28780;-74
2022/03/23 04:55:11;;;;;;;17.90;12.00;;;;;;;5.36;45.66;98182.88;107943;1271;38875;-74
2022/03/23 04:57:42;;;;;;;19.30;11.90;;;;;;;5.68;44.78;98179.59;107959;1271;37965;-74
2022/03/23 05:00:16;;;;;;;19.20;11.00;;;;;;;5.95;44.03;98176.21;107920;1271;39996;-74
2022/03/23 05:02:48;;;;;;;17.30;11.50;;;;;;;6.21;43.05;98182.04;107930;1273;45198;-74
2022/03/23 05:05:19;;;;;;;15.40;7.60;;;;;;;6.47;42.10;98179.56;107911;1271;33732;-74
2022/03/23 05:07:50;;;;;;;18.20;11.50;;;;;;;6.72;41.49;98174.16;107944;1273;30067;-74
2022/03/23 05:10:19;;;;;;;;;;;;;;;6.93;40.94;98179.35;107988;1272;40236;-74
2022/03/23 05:12:51;;;;;;;20.50;12.90;;;;;;;7.16;40.25;98172.16;107889;1271;44082;-74
2022/03/23 05:15:22;;;;;;;21.70;11.90;;;;;;;7.45;39.93;98173.85;107949;1271;41106;-74
2022/03/23 05:17:51;;;;;;;;;;;;;;;7.80;39.49;98178.08;107881;1274;45993;-75
2022/03/23 05:20:23;;;;;;;16.80;11.20;;;;;;;8.22;38.33;98172.38;107993;1271;34457;-74
2022/03/23 05:22:54;;;;;;;13.50;8.80;;;;;;;8.49;37.38;98173.86;107968;1271;34819;-74
2022/03/23 05:25:25;;;;;;;14.90;10.10;;;;;;;8.75;37.13;98177.33;107962;1271;32407;-75
2022/03/23 05:27:56;;;;;;;18.80;11.80;;;;;;;9.11;36.97;98178.52;107866;1272;32816;-74
2022/03/23 05:30:27;;;;;;;16.90;12.50;;;;;;;9.43;36.09;98171.56;107920;1271;43121;-74
2022/03/23 05:32:58;;;;;;;16.60;11.80;;;;;;;9.65;36.27;98173.98;107983;1271;43408;-74
2022/03/23 05:35:29;;;;;;;18.20;13.20;;;;;;;10.19;35.83;98174.90;107876;1271;43209;-74
2022/03/23 05:38:00;;;;;;;19.50;12.90;;;;;;;10.60;35.31;98169.02;107924;1271;41445;-74
2022/03/23 05:40:31;;;;;;;17.60;12.30;;;;;;;10.86;34.52;98166.16;107970;1271;41587;-74
2022/03/23 05:43:02;;;;;;;17.40;12.70;;;;;;;11.20;34.51;98159.71;107908;1273;36490;-74
2022/03/23 05:45:35;;;;;;;17.50;13.50;;;;;;;11.70;34.21;98162.03;107970;1271;35011;-73
2022/03/23 05:48:06;;;;;;;16.30;11.40;;;;;;;12.24;33.67;98159.16;107908;1272;44176;-74
2022/03/23 05:50:37;;;;;;;18.00;11.70;;;;;;;12.40;32.06;98158.73;107876;1273;35255;-74
2022/03/23 05:53:09;;;;;;;16.20;11.90;;;;;;;12.46;32.46;98158.36;107880;1273;34770;-74
2022/03/23 05:55:39;;;;;;;16.60;12.20;;;;;;;12.79;31.48;98160.93;107897;1272;45294;-74
2022/03/23 05:58:10;;;;;;;14.90;10.80;;;;;;;13.05;31.36;98154.95;107974;1270;32514;-74
2022/03/23 06:00:41;;;;;;;15.00;11.40;;;;;;;13.36;30.91;98155.40;107921;1273;29517;-74
2022/03/23 06:03:12;;;;;;;17.40;12.80;;;;;;;13.57;30.56;98153.69;107897;1273;41625;-74
2022/03/23 06:05:43;;;;;;;16.50;12.60;;;;;;;14.11;30.54;98154.39;107912;1271;44420;-74
2022/03/23 06:08:14;;;;;;;17.80;12.80;;;;;;;14.82;29.68;98156.31;107918;1271;36157;-74
2022/03/23 06:10:45;;;;;;;17.50;13.00;;;;;;;15.05;28.87;98152.19;107847;1273;47863;-74
2022/03/23 06:13:15;;;;;;;17.30;13.50;;;;;;;15.17;28.62;98154.70;107863;1271;42014;-73
2022/03/23 06:15:46;;;;;;;17.50;13.30;;;;;;;15.29;28.07;98153.43;107919;1273;44664;-75
2022/03/23 06:18:17;;;;;;;15.30;12.40;;;;;;;15.39;28.20;98154.59;107990;1273;29403;-74
2022/03/23 06:20:48;;;;;;;15.80;12.70;;;;;;;15.48;27.49;98158.80;107972;1271;29341;-74
2022/03/23 06:23:19;;;;;;;17.20;13.60;;;;;;;15.42;27.26;98154.58;107952;1273;44973;-74
2022/03/23 06:25:49;;;;;;;16.80;13.70;;;;;;;15.38;27.41;98157.91;108033;1271;27469;-74
2022/03/23 06:28:21;;;;;;;15.40;12.30;;;;;;;15.55;27.35;98155.40;107985;1271;35199;-74
2022/03/23 06:30:53;;;;;;;15.60;12.10;;;;;;;15.47;26.92;98156.65;107990;1273;35813;-74
2022/03/23 06:33:23;;;;;;;15.50;13.10;;;;;;;15.63;27.41;98157.52;107934;1271;27091;-75
2022/03/23 06:35:54;;;;;;;14.10;11.90;;;;;;;16.27;27.21;98157.89;107907;1271;47921;-74
2022/03/23 06:38:25;;;;;;;14.50;12.10;;;;;;;17.09;26.85;98160.84;107932;1271;43936;-75
2022/03/23 06:40:56;;;;;;;15.40;12.40;;;;;;;17.63;26.09;98161.10;107969;1270;27462;-74
2022/03/23 06:43:27;;;;;;;14.90;12.30;;;;;;;18.02;25.62;98162.48;107963;1270;28482;-75
2022/03/23 06:45:58;;;;;;;15.30;12.60;;;;;;;18.42;24.55;98158.29;107970;1270;48036;-75
2022/03/23 06:48:29;;;;;;;13.20;11.60;;;;;;;18.33;24.35;98155.61;107982;1270;33876;-75
2022/03/23 06:51:00;;;;;;;15.70;12.20;;;;;;;18.19;24.32;98156.52;107916;1270;42255;-75
2022/03/23 06:53:31;;;;;;;15.60;12.40;;;;;;;18.42;23.86;98162.52;107931;1271;42507;-74
2022/03/23 06:56:02;;;;;;;14.40;11.40;;;;;;;18.45;23.59;98155.46;107915;1270;46026;-75
2022/03/23 06:58:36;;;;;;;14.20;11.30;;;;;;;18.64;23.18;98158.95;107990;1271;39127;-75
2022/03/23 07:01:07;;;;;;;13.80;10.10;;;;;;;18.73;22.70;98151.19;107901;1271;48506;-74
2022/03/23 07:03:38;;;;;;;12.90;11.10;;;;;;;18.14;22.36;98148.79;107935;1273;44719;-75
2022/03/23 07:06:09;;;;;;;13.90;10.90;;;;;;;17.58;22.67;98151.17;107924;1271;39920;-75
2022/03/23 07:11:28;;;;;;;13.10;10.00;;;;;;;17.12;23.09;98153.85;107844;1271;40966;-74
2022/03/23 07:13:59;;;;;;;13.20;10.30;;;;;;;17.07;23.47;98158.51;107921;1271;45819;-75
2022/03/23 07:16:30;;;;;;;13.80;11.10;;;;;;;17.41;23.47;98151.42;107909;1272;43317;-75
2022/03/23 07:19:01;;;;;;;13.90;11.50;;;;;;;17.69;22.87;98149.94;107999;1270;40872;-74
2022/03/23 07:21:34;;;;;;;14.60;11.30;;;;;;;17.69;23.35;98144.23;107952;1271;31729;-75
2022/03/23 07:24:05;;;;;;;13.30;11.10;;;;;;;18.77;23.01;98144.11;107966;1271;45157;-74
2022/03/23 07:26:36;;;;;;;13.60;10.30;;;;;;;19.00;22.31;98142.30;107872;1273;42524;-75
2022/03/23 07:29:08;;;;;;;13.30;11.60;;;;;;;19.14;21.89;98142.17;107924;1271;34353;-75
2022/03/23 07:31:38;;;;;;;13.00;10.60;;;;;;;19.15;22.35;98143.65;107981;1270;40697;-75
2022/03/23 07:34:10;;;;;;;12.30;10.50;;;;;;;19.35;22.17;98138.66;107895;1271;32817;-75
2022/03/23 07:36:42;;;;;;;12.90;11.50;;;;;;;19.77;21.77;98141.12;107902;1271;41816;-75
2022/03/23 07:39:16;;;;;;;12.90;10.90;;;;;;;20.40;21.73;98137.98;107995;1271;28689;-75
2022/03/23 07:41:50;;;;;;;13.40;11.00;;;;;;;20.44;21.03;98138.81;107949;1270;31495;-75
2022/03/23 07:44:21;;;;;;;12.10;10.80;;;;;;;20.67;20.50;98133.88;107940;1272;44564;-75
2022/03/23 07:46:52;;;;;;;12.00;10.80;;;;;;;20.61;20.67;98136.77;107948;1271;32134;-75
2022/03/23 07:49:23;;;;;;;12.60;9.80;;;;;;;21.15;20.35;98138.82;107906;1273;35436;-75
2022/03/23 07:51:54;;;;;;;12.80;10.80;;;;;;;21.13;20.04;98138.08;107864;1273;32854;-75
2022/03/23 07:54:25;;;;;;;11.00;9.60;;;;;;;21.32;20.11;98130.96;107870;1273;45426;-76
2022/03/23 07:56:56;;;;;;;11.80;10.60;;;;;;;20.86;19.76;98133.89;107946;1271;40201;-76
2022/03/23 07:59:26;;;;;;;10.70;9.60;;;;;;;21.09;20.11;98136.20;107883;1273;32071;-75
2022/03/23 08:01:57;;;;;;;10.70;9.40;;;;;;;21.80;19.92;98133.67;107966;1270;47804;-75
2022/03/23 08:04:28;;;;;;;11.20;10.00;;;;;;;22.09;19.59;98134.11;107948;1271;38474;-75
2022/03/23 08:07:00;;;;;;;10.30;9.20;;;;;;;22.62;19.50;98125.94;107977;1271;36579;-75
2022/03/23 08:09:32;;;;;;;11.50;10.30;;;;;;;23.29;18.75;98129.34;107968;1271;41632;-74
2022/03/23 08:12:03;;;;;;;10.70;9.60;;;;;;;23.78;18.45;98123.45;107960;1271;43930;-73
2022/03/23 08:14:34;;;;;;;12.40;10.10;;;;;;;24.11;18.40;98126.21;108035;1271;28997;-75
2022/03/23 08:17:05;;;;;;;12.20;10.20;;;;;;;24.54;17.83;98124.44;107865;1271;43375;-75
2022/03/23 08:19:36;;;;;;;12.60;10.20;;;;;;;24.73;17.49;98122.23;107952;1271;42514;-73
2022/03/23 08:22:09;;;;;;;12.10;9.30;;;;;;;24.73;17.16;98119.55;107880;1271;43105;-75
2022/03/23 08:24:39;;;;;;;10.60;8.90;;;;;;;24.81;17.17;98117.98;107924;1271;40447;-75
2022/03/23 08:27:10;;;;;;;11.60;9.30;;;;;;;24.79;17.15;98115.88;107944;1271;44752;-75
2022/03/23 08:29:41;;;;;;;10.30;9.10;;;;;;;24.78;16.97;98118.46;107940;1271;44616;-75
2022/03/23 08:32:12;;;;;;;12.40;9.80;;;;;;;24.91;16.84;98113.35;107924;1271;33946;-74
2022/03/23 08:34:43;;;;;;;11.70;9.80;;;;;;;25.21;16.62;98114.55;107902;1271;35147;-75
2022/03/23 08:37:14;;;;;;;13.00;11.50;;;;;;;25.21;16.47;98115.79;107955;1271;41139;-75
2022/03/23 08:39:45;;;;;;;11.80;10.70;;;;;;;25.30;16.42;98112.90;107946;1271;38460;-75
2022/03/23 08:42:16;;;;;;;11.00;8.60;;;;;;;25.28;16.21;98113.67;107946;1271;37252;-75
2022/03/23 08:44:47;;;;;;;10.50;7.60;;;;;;;25.21;16.57;98112.91;107973;1270;46796;-74
2022/03/23 08:47:18;;;;;;;10.40;7.80;;;;;;;25.51;16.38;98112.17;108003;1271;29922;-74
2022/03/23 08:49:49;;;;;;;10.10;8.40;;;;;;;25.42;16.38;98112.83;107991;1270;40673;-75
2022/03/23 08:52:20;;;;;;;11.50;8.80;;;;;;;25.65;16.46;98110.00;108067;1270;26112;-74
2022/03/23 08:54:50;;;;;;;12.40;9.20;;;;;;;25.81;16.25;98107.97;107960;1272;34044;-75
2022/03/23 08:57:22;;;;;;;12.90;8.70;;;;;;;25.81;16.29;98110.52;107984;1270;40494;-74
2022/03/23 08:59:53;;;;;;;11.50;8.60;;;;;;;25.32;16.21;98107.40;107880;1271;34013;-75
2022/03/23 09:02:24;;;;;;;11.50;8.30;;;;;;;25.19;16.54;98107.64;107869;1271;46324;-74
2022/03/23 09:04:55;;;;;;;10.90;7.40;;;;;;;25.12;16.86;98108.80;107894;1271;34295;-75
2022/03/23 09:07:25;;;;;;;13.00;9.00;;;;;;;24.84;16.54;98100.53;107860;1272;41920;-75
2022/03/23 09:09:56;;;;;;;11.80;8.90;;;;;;;23.99;16.89;98108.41;108007;1271;55118;-75
2022/03/23 09:12:28;;;;;;;13.40;9.10;;;;;;;23.59;17.47;98105.39;107872;1273;49122;-75
2022/03/23 09:14:58;;;;;;;13.50;8.50;;;;;;;23.21;17.41;98105.44;107943;1271;41651;-74
2022/03/23 09:17:29;;;;;;;11.20;8.00;;;;;;;22.48;18.02;98105.23;107942;1271;42273;-74
2022/03/23 09:20:01;;;;;;;11.40;8.10;;;;;;;21.81;18.05;98103.16;107887;1271;43652;-74
2022/03/23 09:22:34;;;;;;;13.00;8.40;;;;;;;20.87;18.67;98104.21;107927;1272;29715;-74
2022/03/23 09:25:07;;;;;;;10.00;7.50;;;;;;;20.11;19.02;98098.16;107865;1271;101504;-74
2022/03/23 09:27:39;;;;;;;10.60;6.90;;;;;;;19.50;18.78;98100.35;108035;1270;46085;-74
2022/03/23 09:30:13;;;;;;;9.50;6.40;;;;;;;18.99;18.76;98096.24;107953;1271;28043;-74
2022/03/23 09:32:46;;;;;;;8.80;6.10;;;;;;;18.71;18.43;98097.16;107919;1271;75906;-74
2022/03/23 09:35:17;;;;;;;10.70;6.50;;;;;;;18.53;18.61;98094.69;108021;1271;43924;-74
2022/03/23 09:37:48;;;;;;;10.50;7.10;;;;;;;18.31;18.97;98091.23;107879;1271;44412;-74
2022/03/23 09:40:24;;;;;;;10.90;6.80;;;;;;;18.30;19.28;98090.96;107939;1271;42881;-74
2022/03/23 09:42:56;;;;;;;11.00;6.50;;;;;;;18.36;19.31;98086.35;107920;1273;50584;-75
2022/03/23 09:45:46;;;;;;;8.70;6.10;;;;;;;18.45;19.47;98087.41;107882;1271;42508;-74
2022/03/23 09:48:21;;;;;;;9.50;5.90;;;;;;;18.46;19.17;98077.89;107917;1271;52621;-74
2022/03/23 09:50:55;;;;;;;9.60;6.00;;;;;;;18.41;18.86;98077.11;107989;1271;43339;-75
2022/03/23 09:53:26;;;;;;;9.30;6.10;;;;;;;18.48;19.09;98077.46;107976;1270;32201;-74
2022/03/23 09:55:57;;;;;;;10.10;6.50;;;;;;;18.52;19.24;98075.41;107972;1270;45559;-74
2022/03/23 09:58:29;;;;;;;10.30;6.60;;;;;;;18.61;19.70;98069.05;107932;1273;33683;-75
2022/03/23 10:00:59;;;;;;;8.30;6.30;;;;;;;18.79;19.41;98065.17;107945;1270;34773;-74
2022/03/23 10:04:08;;;;;;;9.90;7.00;;;;;;;18.76;19.38;98064.41;107932;1271;40776;-74
2022/03/23 10:07:06;;;;;;;8.80;6.00;;;;;;;18.72;19.58;98056.90;107890;1271;43743;-74
2022/03/23 10:10:12;;;;;;;8.60;5.10;;;;;;;18.75;18.65;98059.98;107842;1272;38306;-74
2022/03/23 10:13:14;;;;;;;9.20;5.50;;;;;;;18.67;18.43;98052.73;107971;1270;46229;-74
2022/03/23 10:16:20;;;;;;;7.60;5.20;;;;;;;18.78;18.59;98052.70;107999;1271;27602;-74
2022/03/23 10:18:55;;;;;;;7.20;5.00;;;;;;;19.17;19.06;98048.65;107856;1271;29945;-72
2022/03/23 10:21:28;;;;;;;9.70;6.40;;;;;;;19.46;19.16;98044.64;107968;1271;33161;-74
2022/03/23 10:24:33;;;;;;;7.20;4.40;;;;;;;19.70;18.72;98045.20;107919;1271;35865;-75
2022/03/23 10:27:13;;;;;;;6.70;4.50;;;;;;;19.43;17.13;98038.62;107924;1271;39390;-75
2022/03/23 10:29:49;;;;;;;8.40;5.90;;;;;;;19.39;17.77;98036.44;107968;1270;41061;-75
2022/03/23 10:32:22;;;;;;;6.70;4.20;;;;;;;19.55;17.23;98030.48;107961;1273;26221;-74
2022/03/23 10:34:54;;;;;;;7.70;4.50;;;;;;;19.42;17.12;98033.41;107902;1273;45062;-75
2022/03/23 10:37:30;;;;;;;7.40;4.20;;;;;;;19.63;17.14;98026.39;107925;1271;43248;-75
2022/03/23 10:40:02;;;;;;;5.70;4.30;;;;;;;19.86;17.06;98020.36;107899;1271;44066;-75
2022/03/23 10:42:36;;;;;;;5.80;3.50;;;;;;;19.91;16.50;98015.08;107977;1270;39972;-75
2022/03/23 10:45:10;;;;;;;6.00;3.80;;;;;;;19.90;16.46;98011.66;107909;1272;35497;-75
2022/03/23 10:47:44;;;;;;;6.10;3.70;;;;;;;20.01;16.30;98008.50;107924;1270;51850;-74
2022/03/23 10:50:21;;;;;;;5.90;3.40;;;;;;;20.19;16.81;98006.81;107885;1271;43401;-75
2022/03/23 10:52:57;;;;;;;3.60;2.60;;;;;;;20.47;16.27;98008.91;107918;1271;40682;-75
2022/03/23 10:55:30;;;;;;;4.50;2.90;;;;;;;20.49;15.56;98004.98;107952;1271;50823;-75
2022/03/23 10:58:22;;;;;;;5.80;3.40;;;;;;;20.42;15.29;98000.45;107973;1271;31455;-75
2022/03/23 11:00:55;;;;;;;4.20;3.10;;;;;;;20.32;15.31;97994.33;108032;1270;28941;-75
2022/03/23 11:03:42;;;;;;;4.80;2.90;;;;;;;20.23;14.59;97991.86;107922;1271;39674;-75
2022/03/23 11:06:15;;;;;;;4.80;2.80;;;;;;;20.04;14.44;97986.81;107921;1271;30839;-75
2022/03/23 11:08:47;;;;;;;4.70;3.10;;;;;;;20.12;14.63;97984.84;107882;1271;39793;-75
2022/03/23 11:16:55;;;;;;;12.50;7.20;;;;;;;20.45;16.69;97974.52;107929;1271;47142;-75
2022/03/23 11:19:27;;;;;;;12.30;7.30;;;;;;;20.64;17.41;97967.52;107912;1271;48452;-75
2022/03/23 11:22:09;;;;;;;10.60;6.60;;;;;;;20.77;18.07;97967.27;107893;1272;40475;-75
2022/03/23 11:24:41;;;;;;;10.50;6.60;;;;;;;20.97;18.18;97961.18;107986;1270;26988;-75
2022/03/23 11:27:18;;;;;;;9.60;5.90;;;;;;;21.04;17.60;97953.43;107956;1271;28788;-75
2022/03/23 11:29:51;;;;;;;10.80;6.70;;;;;;;21.03;18.09;97949.46;107919;1271;31130;-75
2022/03/23 11:32:27;;;;;;;10.00;6.30;;;;;;;21.19;18.61;97942.74;108028;1270;74749;-75
2022/03/23 11:35:01;;;;;;;10.70;6.60;;;;;;;21.36;19.00;97937.05;107838;1273;43565;-75
2022/03/23 11:37:34;;;;;;;9.80;7.10;;;;;;;21.49;19.08;97932.37;107989;1270;29124;-75
2022/03/23 11:40:07;;;;;;;10.10;6.70;;;;;;;21.58;18.73;97933.34;107938;1270;56513;-75
2022/03/23 11:42:39;;;;;;;10.10;6.80;;;;;;;21.57;18.58;97926.19;107907;1273;31822;-74
2022/03/23 11:45:14;;;;;;;9.00;6.40;;;;;;;21.42;18.31;97922.23;107923;1270;44880;-75
2022/03/23 11:47:54;;;;;;;10.40;6.70;;;;;;;21.38;18.80;97922.75;108085;1271;45789;-75
2022/03/23 11:50:34;;;;;;;9.30;6.10;;;;;;;21.51;18.74;97916.23;107964;1270;40634;-75
2022/03/23 11:53:09;;;;;;;9.90;6.70;;;;;;;21.16;17.42;97912.85;107794;1271;108111;-75
2022/03/23 11:55:47;;;;;;;8.80;6.20;;;;;;;20.93;18.30;97906.98;107907;1273;42195;-75
2022/03/23 11:58:21;;;;;;;8.00;6.00;;;;;;;21.09;18.35;97903.73;107968;1270;43551;-75
2022/03/23 12:00:54;;;;;;;8.10;5.50;;;;;;;21.17;18.31;97899.02;108016;1268;44564;-75